Time;durP1;ratioP1;P1;durP2;ratioP2;P2;SDS_P1;SDS_P2;PMS_P1;PMS_P2;Temp;Humidity;BMP_temperature;BMP_pressure;BME280_temperature;BME280_humidity;BME280_pressure;Samples;Min_cycle;Max_cycle;Signal;HPM_P1;HPM_P2
2022/07/22 00:02:24;;;;;;;2.67;1.48;;;;;;;;;;4951485;28;20376;-64
2022/07/22 00:04:49;;;;;;;3.28;1.58;;;;;;;;;;4952075;28;20406;-65
2022/07/22 00:07:15;;;;;;;2.58;1.50;;;;;;;;;;4951212;28;20343;-64
2022/07/22 00:09:40;;;;;;;3.72;1.38;;;;;;;;;;4951329;28;20459;-64
2022/07/22 00:12:06;;;;;;;2.00;1.40;;;;;;;;;;4951993;28;20421;-64
2022/07/22 00:14:31;;;;;;;4.25;1.33;;;;;;;;;;4933795;28;20372;-64
2022/07/22 00:16:57;;;;;;;3.13;1.33;;;;;;;;;;4951842;28;20380;-63
2022/07/22 00:19:24;;;;;;;2.47;1.50;;;;;;;;;;4950958;28;20472;-64
2022/07/22 00:21:50;;;;;;;2.15;1.30;;;;;;;;;;4951088;28;20535;-64
2022/07/22 00:24:15;;;;;;;2.28;1.40;;;;;;;;;;4933285;28;20486;-64
2022/07/22 00:26:40;;;;;;;3.67;1.40;;;;;;;;;;4950937;28;20371;-64
2022/07/22 00:29:06;;;;;;;2.35;1.35;;;;;;;;;;4951185;28;20041;-64
2022/07/22 00:31:31;;;;;;;2.03;1.50;;;;;;;;;;4950993;28;20029;-64
2022/07/22 00:33:57;;;;;;;2.67;1.20;;;;;;;;;;4951175;28;20448;-65
2022/07/22 00:36:22;;;;;;;3.67;1.98;;;;;;;;;;4932782;28;20413;-64
2022/07/22 00:38:48;;;;;;;3.55;1.33;;;;;;;;;;4952120;28;20030;-64
2022/07/22 00:41:13;;;;;;;2.22;1.48;;;;;;;;;;4950459;28;20376;-63
2022/07/22 00:43:58;;;;;;;2.40;1.52;;;;;;;;;;4950967;28;20337;-64
2022/07/22 00:46:24;;;;;;;2.88;1.65;;;;;;;;;;4950871;28;20368;-64
2022/07/22 00:48:49;;;;;;;2.70;1.50;;;;;;;;;;4950839;28;20053;-64
2022/07/22 00:51:16;;;;;;;1.83;1.17;;;;;;;;;;4951065;28;20467;-63
2022/07/22 00:53:42;;;;;;;2.65;1.50;;;;;;;;;;4950221;28;20505;-63
2022/07/22 00:56:07;;;;;;;2.70;1.30;;;;;;;;;;4950359;28;20432;-63
2022/07/22 00:58:32;;;;;;;2.97;1.75;;;;;;;;;;4950370;28;20100;-64
2022/07/22 01:00:58;;;;;;;2.47;1.35;;;;;;;;;;4947582;28;20057;-63
2022/07/22 01:03:23;;;;;;;2.38;1.40;;;;;;;;;;4939686;28;20483;-64
2022/07/22 01:05:48;;;;;;;2.17;1.30;;;;;;;;;;4930845;28;20346;-64
2022/07/22 01:08:14;;;;;;;4.07;1.10;;;;;;;;;;4930908;28;20416;-63
2022/07/22 01:10:39;;;;;;;2.45;1.58;;;;;;;;;;4930035;28;20631;-64
2022/07/22 01:13:05;;;;;;;1.83;1.17;;;;;;;;;;4930651;28;20498;-63
2022/07/22 01:15:33;;;;;;;2.67;1.35;;;;;;;;;;4930337;28;20464;-64
2022/07/22 01:17:58;;;;;;;4.70;1.50;;;;;;;;;;4930181;28;20224;-64
2022/07/22 01:20:25;;;;;;;2.28;1.52;;;;;;;;;;4930907;28;20105;-64
2022/07/22 01:22:51;;;;;;;2.03;1.27;;;;;;;;;;4932045;28;20443;-63
2022/07/22 01:25:16;;;;;;;2.05;1.30;;;;;;;;;;4930488;28;20413;-64
2022/07/22 01:27:42;;;;;;;1.85;1.40;;;;;;;;;;4930146;28;20361;-63
2022/07/22 01:30:08;;;;;;;4.05;1.30;;;;;;;;;;4931028;28;20049;-63
2022/07/22 01:32:33;;;;;;;3.42;1.40;;;;;;;;;;4932523;28;20408;-63
2022/07/22 01:34:59;;;;;;;2.25;1.10;;;;;;;;;;4932038;28;20139;-65
2022/07/22 01:37:24;;;;;;;1.73;1.13;;;;;;;;;;4933094;28;20409;-63
2022/07/22 01:39:50;;;;;;;2.10;1.30;;;;;;;;;;4931963;28;20483;-63
2022/07/22 01:42:15;;;;;;;3.38;1.77;;;;;;;;;;4932249;28;20471;-63
2022/07/22 01:44:41;;;;;;;3.80;1.23;;;;;;;;;;4931659;28;20422;-63
2022/07/22 01:47:07;;;;;;;2.70;1.17;;;;;;;;;;4932795;28;20026;-63
2022/07/22 01:49:34;;;;;;;2.17;1.48;;;;;;;;;;4932090;28;20593;-63
2022/07/22 01:52:00;;;;;;;8.00;1.63;;;;;;;;;;4914267;28;20031;-63
2022/07/22 01:54:25;;;;;;;2.85;1.45;;;;;;;;;;4931171;28;20518;-62
2022/07/22 01:56:51;;;;;;;2.80;1.20;;;;;;;;;;4931249;28;20453;-64
2022/07/22 01:59:16;;;;;;;2.55;1.42;;;;;;;;;;4931950;28;20393;-63
2022/07/22 02:01:42;;;;;;;5.80;1.33;;;;;;;;;;4931636;28;20038;-63
2022/07/22 02:04:07;;;;;;;1.63;1.15;;;;;;;;;;4931823;28;20385;-63
2022/07/22 02:06:33;;;;;;;1.73;1.23;;;;;;;;;;4932545;28;20346;-63
2022/07/22 02:08:58;;;;;;;2.28;1.10;;;;;;;;;;4931653;28;20417;-63
2022/07/22 02:11:24;;;;;;;1.38;1.17;;;;;;;;;;4931897;28;20402;-64
2022/07/22 02:13:49;;;;;;;2.60;1.35;;;;;;;;;;4931291;28;20437;-64
2022/07/22 02:16:15;;;;;;;3.92;1.35;;;;;;;;;;4931411;28;20425;-66
2022/07/22 02:18:40;;;;;;;3.40;1.00;;;;;;;;;;4929421;28;20488;-63
2022/07/22 02:21:06;;;;;;;2.92;1.33;;;;;;;;;;4931142;28;20507;-64
2022/07/22 02:23:31;;;;;;;2.33;1.20;;;;;;;;;;4930776;28;20337;-63
2022/07/22 02:25:57;;;;;;;1.88;1.30;;;;;;;;;;4913816;28;20356;-64
2022/07/22 02:28:23;;;;;;;2.58;1.45;;;;;;;;;;4930876;28;20416;-63
2022/07/22 02:30:48;;;;;;;3.72;1.60;;;;;;;;;;4930841;28;20449;-63
2022/07/22 02:33:14;;;;;;;5.68;1.52;;;;;;;;;;4931160;28;20057;-63
2022/07/22 02:35:40;;;;;;;1.58;1.20;;;;;;;;;;4931710;28;20475;-63
2022/07/22 02:38:06;;;;;;;2.03;1.20;;;;;;;;;;4931253;28;20416;-63
2022/07/22 02:40:31;;;;;;;2.10;1.38;;;;;;;;;;4931003;28;20410;-65
2022/07/22 02:42:57;;;;;;;4.13;1.20;;;;;;;;;;4931114;28;20417;-63
2022/07/22 02:45:22;;;;;;;2.30;1.27;;;;;;;;;;4931107;28;20030;-64
2022/07/22 02:47:49;;;;;;;2.40;1.33;;;;;;;;;;4930800;28;20053;-64
2022/07/22 02:50:15;;;;;;;2.35;1.33;;;;;;;;;;4930952;28;20369;-63
2022/07/22 02:52:41;;;;;;;2.30;1.30;;;;;;;;;;4930635;28;20414;-63
2022/07/22 02:55:06;;;;;;;1.58;1.10;;;;;;;;;;4932110;28;20026;-63
2022/07/22 02:57:32;;;;;;;2.85;1.30;;;;;;;;;;4930361;28;20376;-63
2022/07/22 02:59:57;;;;;;;4.32;1.80;;;;;;;;;;4932582;28;20396;-63
2022/07/22 03:02:22;;;;;;;3.63;1.30;;;;;;;;;;4930575;28;20509;-65
2022/07/22 03:04:48;;;;;;;2.80;1.25;;;;;;;;;;4930595;28;20398;-63
2022/07/22 03:07:13;;;;;;;1.75;1.10;;;;;;;;;;4930355;28;20318;-63
2022/07/22 03:09:39;;;;;;;1.42;0.90;;;;;;;;;;4930294;28;20053;-63
2022/07/22 03:12:04;;;;;;;2.47;1.48;;;;;;;;;;4930611;28;20379;-64
2022/07/22 03:14:29;;;;;;;2.25;1.40;;;;;;;;;;4930503;28;20041;-64
2022/07/22 03:16:55;;;;;;;1.95;1.10;;;;;;;;;;4930913;28;20479;-63
2022/07/22 03:19:20;;;;;;;3.17;1.38;;;;;;;;;;4930027;28;20489;-63
2022/07/22 03:21:46;;;;;;;1.75;1.30;;;;;;;;;;4930288;28;20101;-63
2022/07/22 03:24:11;;;;;;;5.40;1.20;;;;;;;;;;4930162;28;20468;-63
2022/07/22 03:26:36;;;;;;;2.72;1.30;;;;;;;;;;4930197;28;20387;-63
2022/07/22 03:29:02;;;;;;;1.60;1.15;;;;;;;;;;4930092;28;20330;-64
2022/07/22 03:31:27;;;;;;;3.28;1.70;;;;;;;;;;4929985;28;20052;-64
2022/07/22 03:33:53;;;;;;;1.25;1.10;;;;;;;;;;4932578;28;20511;-65
2022/07/22 03:36:18;;;;;;;2.53;1.30;;;;;;;;;;4934517;28;20444;-64
2022/07/22 03:38:43;;;;;;;2.53;1.00;;;;;;;;;;4934712;28;20129;-63
2022/07/22 03:41:09;;;;;;;2.42;1.60;;;;;;;;;;4934176;28;20345;-63
2022/07/22 03:43:34;;;;;;;2.40;1.50;;;;;;;;;;4933805;28;20531;-63
2022/07/22 03:46:00;;;;;;;2.70;1.58;;;;;;;;;;4934748;28;20057;-65
2022/07/22 03:48:25;;;;;;;1.83;1.27;;;;;;;;;;4933959;28;20100;-63
2022/07/22 03:50:51;;;;;;;1.80;1.20;;;;;;;;;;4922601;28;20022;-63
2022/07/22 03:53:17;;;;;;;1.35;1.00;;;;;;;;;;4934248;28;20409;-63
2022/07/22 03:55:42;;;;;;;2.17;1.50;;;;;;;;;;4933637;28;20060;-64
2022/07/22 03:58:08;;;;;;;1.58;1.20;;;;;;;;;;4933880;28;20399;-63
2022/07/22 04:00:33;;;;;;;3.28;1.65;;;;;;;;;;4934406;28;20391;-64
2022/07/22 04:02:59;;;;;;;1.73;1.25;;;;;;;;;;4932548;28;20405;-64
2022/07/22 04:05:24;;;;;;;2.17;1.33;;;;;;;;;;4933693;28;20362;-63
2022/07/22 04:07:49;;;;;;;1.98;1.15;;;;;;;;;;4933376;28;20461;-63
2022/07/22 04:10:15;;;;;;;3.05;1.70;;;;;;;;;;4933764;28;20493;-63
2022/07/22 04:12:40;;;;;;;1.90;1.40;;;;;;;;;;4933711;28;20397;-62
2022/07/22 04:15:07;;;;;;;3.08;1.40;;;;;;;;;;4933327;28;20054;-63
2022/07/22 04:17:33;;;;;;;3.60;1.48;;;;;;;;;;4934274;28;20327;-63
2022/07/22 04:20:00;;;;;;;1.90;1.30;;;;;;;;;;4933601;28;20321;-63
2022/07/22 04:22:26;;;;;;;3.22;1.30;;;;;;;;;;4933198;28;20437;-63
2022/07/22 04:24:51;;;;;;;2.67;1.52;;;;;;;;;;4933877;28;20468;-63
2022/07/22 04:27:17;;;;;;;2.88;1.25;;;;;;;;;;4934269;28;20385;-63
2022/07/22 04:29:42;;;;;;;1.40;1.10;;;;;;;;;;4933396;28;20322;-63
2022/07/22 04:32:07;;;;;;;1.52;1.27;;;;;;;;;;4934377;28;20360;-63
2022/07/22 04:34:33;;;;;;;3.05;1.40;;;;;;;;;;4933450;28;20337;-64
2022/07/22 04:36:58;;;;;;;3.47;1.70;;;;;;;;;;4933394;28;20080;-63
2022/07/22 04:39:24;;;;;;;3.00;1.10;;;;;;;;;;4933164;28;20451;-63
2022/07/22 04:41:49;;;;;;;2.13;1.27;;;;;;;;;;4933482;28;20365;-63
2022/07/22 04:44:14;;;;;;;2.78;1.48;;;;;;;;;;4932244;28;20417;-63
2022/07/22 04:46:40;;;;;;;2.65;1.40;;;;;;;;;;4932555;28;20088;-64
2022/07/22 04:49:05;;;;;;;1.45;1.13;;;;;;;;;;4934680;28;20428;-63
2022/07/22 04:51:31;;;;;;;6.28;1.83;;;;;;;;;;4932752;28;20368;-63
2022/07/22 04:53:56;;;;;;;2.85;1.40;;;;;;;;;;4933468;28;20425;-64
2022/07/22 04:56:21;;;;;;;1.80;1.20;;;;;;;;;;4932531;28;20496;-63
2022/07/22 04:58:47;;;;;;;2.30;1.45;;;;;;;;;;4932675;28;20077;-64
2022/07/22 05:01:12;;;;;;;2.67;1.60;;;;;;;;;;4932440;28;20060;-63
2022/07/22 05:03:39;;;;;;;1.92;1.20;;;;;;;;;;4932323;28;20460;-63
2022/07/22 05:06:04;;;;;;;3.38;1.63;;;;;;;;;;4932910;28;20369;-63
2022/07/22 05:08:30;;;;;;;3.28;1.52;;;;;;;;;;4932532;28;20088;-64
2022/07/22 05:10:55;;;;;;;2.90;1.70;;;;;;;;;;4931475;28;20085;-64
2022/07/22 05:13:20;;;;;;;1.70;1.50;;;;;;;;;;4932737;28;20317;-63
2022/07/22 05:15:46;;;;;;;2.17;1.40;;;;;;;;;;4933056;28;20380;-64
2022/07/22 05:18:11;;;;;;;3.45;1.40;;;;;;;;;;4932400;28;20093;-63
2022/07/22 05:20:37;;;;;;;1.95;1.50;;;;;;;;;;4932058;28;20380;-64
2022/07/22 05:23:02;;;;;;;1.65;1.15;;;;;;;;;;4932465;28;20104;-64
2022/07/22 05:25:28;;;;;;;2.10;1.25;;;;;;;;;;4932236;28;20409;-63
2022/07/22 05:27:54;;;;;;;2.30;1.40;;;;;;;;;;4932469;28;20380;-63
2022/07/22 05:30:20;;;;;;;2.00;1.60;;;;;;;;;;4931884;28;21081;-63
2022/07/22 05:32:46;;;;;;;4.70;1.58;;;;;;;;;;4932609;28;20030;-63
2022/07/22 05:35:11;;;;;;;2.80;1.85;;;;;;;;;;4931667;28;20034;-64
2022/07/22 05:37:36;;;;;;;2.42;1.50;;;;;;;;;;4931804;28;20456;-63
2022/07/22 05:40:02;;;;;;;3.42;1.55;;;;;;;;;;4932668;28;20445;-63
2022/07/22 05:42:27;;;;;;;2.30;1.30;;;;;;;;;;4931944;28;20436;-64
2022/07/22 05:44:53;;;;;;;4.57;1.73;;;;;;;;;;4932131;28;20052;-63
2022/07/22 05:47:18;;;;;;;3.13;1.80;;;;;;;;;;4932580;28;20500;-63
2022/07/22 05:49:44;;;;;;;3.28;1.70;;;;;;;;;;4932480;28;20030;-63
2022/07/22 05:52:09;;;;;;;1.90;1.30;;;;;;;;;;4930016;28;20360;-63
2022/07/22 05:54:34;;;;;;;1.98;1.58;;;;;;;;;;4931990;28;20372;-64
2022/07/22 05:57:00;;;;;;;2.42;1.55;;;;;;;;;;4930995;28;20475;-63
2022/07/22 05:59:25;;;;;;;3.22;1.55;;;;;;;;;;4932095;28;20445;-63
2022/07/22 06:01:50;;;;;;;2.40;1.55;;;;;;;;;;4931585;28;20401;-63
2022/07/22 06:04:16;;;;;;;3.75;1.50;;;;;;;;;;4931515;28;20191;-63
2022/07/22 06:06:41;;;;;;;5.13;1.70;;;;;;;;;;4931566;28;20416;-63
2022/07/22 06:09:07;;;;;;;2.30;1.33;;;;;;;;;;4931512;28;20460;-63
2022/07/22 06:11:32;;;;;;;3.10;1.25;;;;;;;;;;4931406;28;20421;-63
2022/07/22 06:13:57;;;;;;;1.90;1.23;;;;;;;;;;4931945;28;20342;-66
2022/07/22 06:16:23;;;;;;;2.15;1.30;;;;;;;;;;4931662;28;20034;-63
2022/07/22 06:18:48;;;;;;;4.10;2.05;;;;;;;;;;4931015;28;20476;-63
2022/07/22 06:21:13;;;;;;;3.72;1.63;;;;;;;;;;4931055;28;20053;-63
2022/07/22 06:23:39;;;;;;;2.85;1.60;;;;;;;;;;4931563;28;20491;-63
2022/07/22 06:26:05;;;;;;;1.73;1.42;;;;;;;;;;4931291;28;20409;-64
2022/07/22 06:28:31;;;;;;;3.15;1.85;;;;;;;;;;4931104;28;20360;-64
2022/07/22 06:30:56;;;;;;;3.67;2.08;;;;;;;;;;4930869;28;20326;-63
2022/07/22 06:33:22;;;;;;;2.92;1.90;;;;;;;;;;4931942;28;20349;-63
2022/07/22 06:35:47;;;;;;;3.13;2.00;;;;;;;;;;4930936;28;20329;-64
2022/07/22 06:38:13;;;;;;;5.65;2.17;;;;;;;;;;4931023;28;20380;-63
2022/07/22 06:40:38;;;;;;;3.05;1.73;;;;;;;;;;4932150;28;20500;-62
2022/07/22 06:43:03;;;;;;;2.38;1.77;;;;;;;;;;4931643;28;20471;-63
2022/07/22 06:45:29;;;;;;;2.25;1.60;;;;;;;;;;4931490;28;20368;-63
2022/07/22 06:47:54;;;;;;;3.22;1.77;;;;;;;;;;4930613;28;20550;-63
2022/07/22 06:50:20;;;;;;;2.20;1.70;;;;;;;;;;4931161;28;20456;-65
2022/07/22 06:52:46;;;;;;;2.17;1.70;;;;;;;;;;4931047;28;20464;-63
2022/07/22 06:55:11;;;;;;;2.45;1.48;;;;;;;;;;4930733;28;20344;-63
2022/07/22 06:57:37;;;;;;;2.05;1.35;;;;;;;;;;4931323;28;20531;-67
2022/07/22 07:00:06;;;;;;;2.50;1.70;;;;;;;;;;4930519;28;20477;-63
2022/07/22 07:02:31;;;;;;;2.75;1.98;;;;;;;;;;4931114;28;20445;-63
2022/07/22 07:04:57;;;;;;;3.05;1.70;;;;;;;;;;4930902;28;20460;-64
2022/07/22 07:07:22;;;;;;;1.90;1.50;;;;;;;;;;4931268;28;20453;-63
2022/07/22 07:09:48;;;;;;;3.05;1.83;;;;;;;;;;4931287;28;20357;-63
2022/07/22 07:12:13;;;;;;;3.22;1.90;;;;;;;;;;4931324;28;20357;-63
2022/07/22 07:14:38;;;;;;;3.90;1.60;;;;;;;;;;4930614;28;20437;-63
2022/07/22 07:17:04;;;;;;;2.17;1.65;;;;;;;;;;4930490;28;20468;-63
2022/07/22 07:19:30;;;;;;;3.63;1.90;;;;;;;;;;4930675;28;20484;-63
2022/07/22 07:21:55;;;;;;;2.75;1.35;;;;;;;;;;4930459;28;20512;-65
2022/07/22 07:24:21;;;;;;;2.85;2.05;;;;;;;;;;4930101;28;20523;-63
2022/07/22 07:26:46;;;;;;;2.35;1.88;;;;;;;;;;4930206;28;20361;-63
2022/07/22 07:29:11;;;;;;;4.35;2.15;;;;;;;;;;4930304;28;20453;-63
2022/07/22 07:31:37;;;;;;;4.25;1.83;;;;;;;;;;4930407;28;20396;-63
2022/07/22 07:34:02;;;;;;;2.72;1.88;;;;;;;;;;4930859;28;20491;-63
2022/07/22 07:36:27;;;;;;;2.97;1.60;;;;;;;;;;4932142;28;20314;-63
2022/07/22 07:38:53;;;;;;;2.35;1.90;;;;;;;;;;4932080;28;20445;-63
2022/07/22 07:41:18;;;;;;;2.50;1.90;;;;;;;;;;4930213;28;20356;-63
2022/07/22 07:43:44;;;;;;;3.42;1.90;;;;;;;;;;4931743;28;20429;-63
2022/07/22 07:46:09;;;;;;;3.15;1.95;;;;;;;;;;4930424;28;20349;-63
2022/07/22 07:48:34;;;;;;;3.97;2.05;;;;;;;;;;4930496;28;20425;-63
2022/07/22 07:51:00;;;;;;;2.33;1.60;;;;;;;;;;4930104;28;20464;-63
2022/07/22 07:53:26;;;;;;;3.72;2.00;;;;;;;;;;4930130;28;20437;-63
2022/07/22 07:55:51;;;;;;;3.53;2.17;;;;;;;;;;4929861;28;20172;-62
2022/07/22 07:58:17;;;;;;;4.50;2.20;;;;;;;;;;4927224;28;20445;-63
2022/07/22 08:00:42;;;;;;;2.63;1.77;;;;;;;;;;4929440;28;20437;-64
2022/07/22 08:03:08;;;;;;;3.30;2.05;;;;;;;;;;4928236;28;20104;-63
2022/07/22 08:05:34;;;;;;;2.40;1.95;;;;;;;;;;4928229;28;20506;-63
2022/07/22 08:07:59;;;;;;;3.38;1.90;;;;;;;;;;4929484;28;20369;-65
2022/07/22 08:10:26;;;;;;;3.15;2.38;;;;;;;;;;4927884;28;20376;-63
2022/07/22 08:12:53;;;;;;;5.15;1.98;;;;;;;;;;4928289;28;20034;-63
2022/07/22 08:15:19;;;;;;;3.88;2.20;;;;;;;;;;4927763;28;20124;-64
2022/07/22 08:17:44;;;;;;;3.60;2.13;;;;;;;;;;4927754;28;20334;-63
2022/07/22 08:20:10;;;;;;;2.47;1.70;;;;;;;;;;4929998;28;20065;-63
2022/07/22 08:22:36;;;;;;;3.47;1.90;;;;;;;;;;4931193;28;20421;-63
2022/07/22 08:25:01;;;;;;;2.88;1.70;;;;;;;;;;4931948;28;20472;-63
2022/07/22 08:27:27;;;;;;;3.35;2.05;;;;;;;;;;4931711;28;20318;-65
2022/07/22 08:29:52;;;;;;;4.93;2.30;;;;;;;;;;4933091;28;20380;-63
2022/07/22 08:32:18;;;;;;;3.05;2.15;;;;;;;;;;4932897;28;20491;-64
2022/07/22 08:34:43;;;;;;;4.97;2.03;;;;;;;;;;4932203;28;20368;-66
2022/07/22 08:37:08;;;;;;;2.53;1.88;;;;;;;;;;4931810;28;20468;-62
2022/07/22 08:39:34;;;;;;;3.55;1.95;;;;;;;;;;4931358;28;20476;-63
2022/07/22 08:42:00;;;;;;;3.05;1.90;;;;;;;;;;4931368;28;20435;-64
2022/07/22 08:44:29;;;;;;;3.20;2.15;;;;;;;;;;4931260;28;20396;-63
2022/07/22 08:46:55;;;;;;;3.25;2.10;;;;;;;;;;4931219;28;20413;-63
2022/07/22 08:49:20;;;;;;;2.92;1.90;;;;;;;;;;4929943;28;20125;-65
2022/07/22 08:51:45;;;;;;;3.58;2.58;;;;;;;;;;4931205;28;20479;-63
2022/07/22 08:54:11;;;;;;;4.18;2.38;;;;;;;;;;4931101;28;20543;-63
2022/07/22 08:56:37;;;;;;;2.63;1.92;;;;;;;;;;4931261;28;20313;-63
2022/07/22 08:59:04;;;;;;;2.70;1.90;;;;;;;;;;4932086;28;20437;-63
2022/07/22 09:01:29;;;;;;;2.63;1.80;;;;;;;;;;4931322;28;20425;-64
2022/07/22 09:03:56;;;;;;;4.85;2.22;;;;;;;;;;4930972;28;20445;-64
2022/07/22 09:06:24;;;;;;;3.33;2.00;;;;;;;;;;4931903;28;20413;-64
2022/07/22 09:08:54;;;;;;;3.65;2.28;;;;;;;;;;4930911;28;20434;-63
2022/07/22 09:11:21;;;;;;;2.60;2.00;;;;;;;;;;4932009;28;20365;-63
2022/07/22 09:13:47;;;;;;;3.25;2.08;;;;;;;;;;4930912;28;20376;-65
2022/07/22 09:16:13;;;;;;;5.47;2.08;;;;;;;;;;4897394;28;20135;-63
2022/07/22 09:18:52;;;;;;;2.40;1.83;;;;;;;;;;4930553;28;20504;-64
2022/07/22 09:21:20;;;;;;;2.47;1.83;;;;;;;;;;4930715;28;20027;-64
2022/07/22 09:23:45;;;;;;;3.00;2.60;;;;;;;;;;4932055;28;20443;-63
2022/07/22 09:26:30;;;;;;;3.08;2.20;;;;;;;;;;4930608;28;20056;-63
2022/07/22 09:28:56;;;;;;;3.75;1.88;;;;;;;;;;4930237;28;20042;-63
2022/07/22 09:31:26;;;;;;;3.90;2.05;;;;;;;;;;4929502;28;20350;-63
2022/07/22 09:33:53;;;;;;;4.47;2.20;;;;;;;;;;4930321;28;20450;-63
2022/07/22 09:36:19;;;;;;;6.57;2.30;;;;;;;;;;4930319;28;20026;-63
2022/07/22 09:38:44;;;;;;;2.17;1.60;;;;;;;;;;4930300;28;20452;-63
2022/07/22 09:41:10;;;;;;;2.90;2.33;;;;;;;;;;4930174;28;20353;-63
2022/07/22 09:43:35;;;;;;;3.75;2.10;;;;;;;;;;4930889;28;20417;-63
2022/07/22 09:46:01;;;;;;;2.47;1.80;;;;;;;;;;4930368;28;20370;-63
2022/07/22 09:48:26;;;;;;;4.82;2.50;;;;;;;;;;4930447;28;20453;-63
2022/07/22 09:50:55;;;;;;;3.33;2.10;;;;;;;;;;4929829;28;20397;-64
2022/07/22 09:53:22;;;;;;;4.45;2.25;;;;;;;;;;4929899;28;20431;-63
2022/07/22 09:55:47;;;;;;;2.85;1.88;;;;;;;;;;4912553;28;20433;-63
2022/07/22 09:58:13;;;;;;;2.63;1.95;;;;;;;;;;4929926;28;20452;-65
2022/07/22 10:00:39;;;;;;;3.88;2.47;;;;;;;;;;4929662;28;20052;-63
2022/07/22 10:03:06;;;;;;;4.90;2.65;;;;;;;;;;4931313;28;20428;-62
2022/07/22 10:05:35;;;;;;;3.28;2.40;;;;;;;;;;4931015;28;20516;-64
2022/07/22 10:08:02;;;;;;;3.55;2.05;;;;;;;;;;4929102;28;20500;-63
2022/07/22 10:10:29;;;;;;;2.95;2.28;;;;;;;;;;4929445;28;20482;-63
2022/07/22 10:12:56;;;;;;;2.88;1.90;;;;;;;;;;4930668;28;20453;-63
2022/07/22 10:15:23;;;;;;;3.67;2.00;;;;;;;;;;4930967;28;20425;-63
2022/07/22 10:17:53;;;;;;;2.83;2.28;;;;;;;;;;4929757;28;20034;-63
2022/07/22 10:20:24;;;;;;;3.85;1.80;;;;;;;;;;4912504;28;20459;-63
2022/07/22 10:23:00;;;;;;;2.65;1.83;;;;;;;;;;4930051;28;20422;-63
2022/07/22 10:25:28;;;;;;;4.13;2.17;;;;;;;;;;4929849;28;20397;-64
2022/07/22 10:27:59;;;;;;;3.35;2.25;;;;;;;;;;4930656;28;20412;-64
2022/07/22 10:30:30;;;;;;;2.58;2.20;;;;;;;;;;4929495;28;20321;-65
2022/07/22 10:33:15;;;;;;;2.92;1.90;;;;;;;;;;4929249;28;20471;-63
2022/07/22 10:35:43;;;;;;;3.78;2.22;;;;;;;;;;4929213;28;20349;-63
2022/07/22 10:38:10;;;;;;;3.40;2.60;;;;;;;;;;4930855;28;20536;-63
2022/07/22 10:40:47;;;;;;;4.47;2.17;;;;;;;;;;4928815;28;20377;-62
2022/07/22 10:43:14;;;;;;;2.80;2.28;;;;;;;;;;4928897;28;20038;-63
2022/07/22 10:45:46;;;;;;;3.20;2.20;;;;;;;;;;4928949;28;20333;-62
2022/07/22 10:48:20;;;;;;;2.75;1.80;;;;;;;;;;4930209;28;20449;-62
2022/07/22 10:50:51;;;;;;;2.50;2.00;;;;;;;;;;4928964;28;20433;-62
2022/07/22 10:53:25;;;;;;;4.45;2.95;;;;;;;;;;4928637;28;20118;-63
2022/07/22 10:55:58;;;;;;;3.78;2.13;;;;;;;;;;4927407;28;20527;-62
2022/07/22 10:58:33;;;;;;;3.22;2.22;;;;;;;;;;4930361;28;20405;-62
2022/07/22 11:01:04;;;;;;;3.45;2.20;;;;;;;;;;4929474;28;20514;-62
2022/07/22 11:03:30;;;;;;;4.25;2.35;;;;;;;;;;4929024;28;20467;-63
2022/07/22 11:05:56;;;;;;;3.15;2.03;;;;;;;;;;4929739;28;20389;-62
2022/07/22 11:08:22;;;;;;;5.07;2.22;;;;;;;;;;4929193;28;20397;-63
2022/07/22 11:10:51;;;;;;;3.83;2.28;;;;;;;;;;4928574;28;20031;-64
2022/07/22 11:13:40;;;;;;;3.88;2.45;;;;;;;;;;4928932;28;20034;-63
2022/07/22 11:16:20;;;;;;;6.63;2.15;;;;;;;;;;4929764;28;20413;-62
2022/07/22 11:18:57;;;;;;;2.72;2.15;;;;;;;;;;4928780;28;20496;-62
2022/07/22 11:21:27;;;;;;;2.27;1.90;;;;;;;;;;4928598;28;20449;-62
2022/07/22 11:23:55;;;;;;;5.47;2.05;;;;;;;;;;4929438;28;20269;-62
2022/07/22 11:26:40;;;;;;;2.05;1.73;;;;;;;;;;4928360;28;20334;-62
2022/07/22 11:29:07;;;;;;;2.42;1.80;;;;;;;;;;4928594;28;20447;-62
2022/07/22 11:31:32;;;;;;;2.15;1.73;;;;;;;;;;4928724;28;20026;-62
2022/07/22 11:34:25;;;;;;;4.50;2.20;;;;;;;;;;4929120;28;20402;-62
2022/07/22 11:36:52;;;;;;;3.08;1.92;;;;;;;;;;4926312;28;20429;-62
2022/07/22 11:39:20;;;;;;;4.05;2.22;;;;;;;;;;4928402;28;20085;-62
2022/07/22 11:41:45;;;;;;;2.65;1.63;;;;;;;;;;4929650;28;20538;-62
2022/07/22 11:44:11;;;;;;;2.50;2.10;;;;;;;;;;4928832;28;20371;-62
2022/07/22 11:46:41;;;;;;;3.75;2.20;;;;;;;;;;4928933;28;20356;-63
2022/07/22 11:49:08;;;;;;;3.17;2.35;;;;;;;;;;4929977;28;20421;-63
2022/07/22 11:51:35;;;;;;;5.40;2.00;;;;;;;;;;4928144;28;20503;-63
2022/07/22 11:54:02;;;;;;;3.42;1.77;;;;;;;;;;4929493;28;20110;-63
2022/07/22 11:56:27;;;;;;;2.58;1.83;;;;;;;;;;4932359;28;20425;-65
2022/07/22 11:58:54;;;;;;;2.70;1.80;;;;;;;;;;4932444;28;20315;-62
2022/07/22 12:01:22;;;;;;;2.67;1.90;;;;;;;;;;4932180;28;20448;-64
2022/07/22 12:03:58;;;;;;;2.58;1.80;;;;;;;;;;4932020;28;20062;-64
2022/07/22 12:06:24;;;;;;;2.45;1.95;;;;;;;;;;4932527;28;20326;-63
2022/07/22 12:09:11;;;;;;;2.15;1.80;;;;;;;;;;4932100;28;20421;-63
2022/07/22 12:11:40;;;;;;;2.00;1.70;;;;;;;;;;4931622;28;20089;-63
2022/07/22 12:14:09;;;;;;;;;;;;;;;;;;4932246;28;20258;-63
2022/07/22 12:16:35;;;;;;;2.78;2.10;;;;;;;;;;4932967;28;20359;-64
2022/07/22 12:19:05;;;;;;;4.43;1.90;;;;;;;;;;4932261;28;20397;-63
2022/07/22 12:21:32;;;;;;;2.33;1.70;;;;;;;;;;4931718;28;20446;-62
2022/07/22 12:24:03;;;;;;;2.78;1.98;;;;;;;;;;4932780;28;20302;-63
2022/07/22 12:26:43;;;;;;;4.43;2.05;;;;;;;;;;4931532;28;20421;-63
2022/07/22 12:29:30;;;;;;;2.60;1.70;;;;;;;;;;4931317;28;20449;-63
2022/07/22 12:32:00;;;;;;;2.25;1.60;;;;;;;;;;4932319;28;20461;-62
2022/07/22 12:34:34;;;;;;;3.05;2.20;;;;;;;;;;4931435;28;20436;-63
2022/07/22 12:37:07;;;;;;;2.38;1.67;;;;;;;;;;4931901;28;20468;-62
2022/07/22 12:39:32;;;;;;;1.95;1.70;;;;;;;;;;4929847;28;20394;-63
2022/07/22 12:41:58;;;;;;;2.00;1.63;;;;;;;;;;4932363;28;20129;-62
2022/07/22 12:44:25;;;;;;;3.50;1.98;;;;;;;;;;4931225;28;20389;-62
2022/07/22 12:46:54;;;;;;;2.97;1.95;;;;;;;;;;4931235;28;20456;-62
2022/07/22 12:49:20;;;;;;;;;;;;;;;;;;4932066;28;20022;-62
2022/07/22 12:52:08;;;;;;;2.50;1.88;;;;;;;;;;4931077;28;19935;-63
2022/07/22 12:54:35;;;;;;;3.08;2.00;;;;;;;;;;4930821;28;20452;-62
2022/07/22 12:57:01;;;;;;;3.30;2.30;;;;;;;;;;4931785;28;20113;-62
2022/07/22 12:59:26;;;;;;;3.00;2.08;;;;;;;;;;4930955;28;20425;-63
2022/07/22 13:01:52;;;;;;;5.10;1.98;;;;;;;;;;4931106;28;20026;-63
2022/07/22 13:04:17;;;;;;;3.47;2.00;;;;;;;;;;4931377;28;20038;-63
2022/07/22 13:06:43;;;;;;;2.55;1.80;;;;;;;;;;4929865;28;20457;-63
2022/07/22 13:09:08;;;;;;;2.40;1.90;;;;;;;;;;4930862;28;20412;-63
2022/07/22 13:11:39;;;;;;;3.97;2.55;;;;;;;;;;4930856;28;20412;-62
2022/07/22 13:14:07;;;;;;;3.83;2.10;;;;;;;;;;4930734;28;20026;-63
2022/07/22 13:16:33;;;;;;;;;;;;;;;;;;4931431;28;20476;-63
2022/07/22 13:18:58;;;;;;;2.78;2.10;;;;;;;;;;4931027;28;20426;-62
2022/07/22 13:21:23;;;;;;;5.32;2.10;;;;;;;;;;4931622;28;20433;-63
2022/07/22 13:23:49;;;;;;;3.63;2.15;;;;;;;;;;4930930;28;20365;-63
2022/07/22 13:26:14;;;;;;;2.83;2.20;;;;;;;;;;4930596;28;20349;-62
2022/07/22 13:28:39;;;;;;;3.08;2.17;;;;;;;;;;4931136;28;20409;-62
2022/07/22 13:31:05;;;;;;;2.92;2.20;;;;;;;;;;4930900;28;20386;-62
2022/07/22 13:33:30;;;;;;;3.47;2.38;;;;;;;;;;4930714;28;20034;-62
2022/07/22 13:35:55;;;;;;;2.95;1.90;;;;;;;;;;4930970;28;20456;-63
2022/07/22 13:38:21;;;;;;;3.00;2.30;;;;;;;;;;4931751;28;20393;-62
2022/07/22 13:40:50;;;;;;;3.95;2.22;;;;;;;;;;4932001;28;20026;-63
2022/07/22 13:43:20;;;;;;;3.30;1.98;;;;;;;;;;4930101;28;20038;-65
2022/07/22 13:45:45;;;;;;;4.90;2.70;;;;;;;;;;4930055;28;20136;-62
2022/07/22 13:48:11;;;;;;;4.80;2.47;;;;;;;;;;4930211;28;20528;-62
2022/07/22 13:50:36;;;;;;;3.40;2.10;;;;;;;;;;4930214;28;20519;-62
2022/07/22 13:53:01;;;;;;;5.60;2.45;;;;;;;;;;4929024;28;20150;-62
2022/07/22 13:55:27;;;;;;;2.60;2.10;;;;;;;;;;4930051;28;20455;-63
2022/07/22 13:57:53;;;;;;;3.45;2.05;;;;;;;;;;4929563;28;20453;-62
2022/07/22 14:00:18;;;;;;;2.80;2.22;;;;;;;;;;4929918;28;20318;-62
2022/07/22 14:02:44;;;;;;;3.90;2.38;;;;;;;;;;4930849;28;20376;-63
2022/07/22 14:05:11;;;;;;;3.60;2.28;;;;;;;;;;4930206;28;20413;-62
2022/07/22 14:07:36;;;;;;;3.42;2.30;;;;;;;;;;4912796;28;20337;-62
2022/07/22 14:10:03;;;;;;;4.45;2.33;;;;;;;;;;4930477;28;20340;-64
2022/07/22 14:12:28;;;;;;;2.78;2.10;;;;;;;;;;4929813;28;20423;-62
2022/07/22 14:14:54;;;;;;;4.45;3.00;;;;;;;;;;4929958;28;20056;-62
2022/07/22 14:17:19;;;;;;;3.78;2.33;;;;;;;;;;4929355;28;20113;-62
2022/07/22 14:19:45;;;;;;;3.67;2.05;;;;;;;;;;4929734;28;20484;-62
2022/07/22 14:22:10;;;;;;;2.92;2.15;;;;;;;;;;4929617;28;20456;-62
2022/07/22 14:24:35;;;;;;;2.83;2.22;;;;;;;;;;4929480;28;20451;-62
2022/07/22 14:27:01;;;;;;;2.60;2.15;;;;;;;;;;4929055;28;20511;-65
2022/07/22 14:29:26;;;;;;;3.83;2.10;;;;;;;;;;4928891;28;20366;-63
2022/07/22 14:31:52;;;;;;;3.80;2.50;;;;;;;;;;4929131;28;20088;-62
2022/07/22 14:34:17;;;;;;;3.25;2.15;;;;;;;;;;4929305;28;20034;-64
2022/07/22 14:36:42;;;;;;;2.72;2.10;;;;;;;;;;4931130;28;20496;-63
2022/07/22 14:39:08;;;;;;;3.45;2.25;;;;;;;;;;4929287;28;20353;-62
2022/07/22 14:41:33;;;;;;;2.78;2.03;;;;;;;;;;4929163;28;20034;-63